Time;durP1;ratioP1;P1;durP2;ratioP2;P2;SDS_P1;SDS_P2;PMS_P1;PMS_P2;Temp;Humidity;BMP_temperature;BMP_pressure;BME280_temperature;BME280_humidity;BME280_pressure;Samples;Min_cycle;Max_cycle;Signal;HPM_P1;HPM_P2
2022/11/22 00:00:42;;;;;;;29.70;17.95;;;;;;;4.04;81.58;98928.59;4289666;33;33710;-73
2022/11/22 00:03:10;;;;;;;32.88;18.42;;;;;;;4.27;79.79;98935.97;4290274;33;34161;-72
2022/11/22 00:05:37;;;;;;;30.88;18.27;;;;;;;4.13;80.58;98938.00;4288682;33;34875;-75
2022/11/22 00:08:04;;;;;;;39.40;18.15;;;;;;;4.13;80.28;98935.31;4290140;33;34740;-72
2022/11/22 00:10:32;;;;;;;46.45;18.15;;;;;;;4.08;80.55;98932.47;4277284;33;33806;-75
2022/11/22 00:13:00;;;;;;;39.42;19.15;;;;;;;4.03;80.85;98921.63;4277137;33;33540;-76
2022/11/22 00:15:28;;;;;;;30.10;18.60;;;;;;;3.79;82.22;98918.81;4277291;33;35059;-74
2022/11/22 00:17:56;;;;;;;33.88;17.65;;;;;;;4.04;81.07;98929.47;4276973;33;33778;-76
2022/11/22 00:20:23;;;;;;;35.30;18.40;;;;;;;4.08;81.56;98935.16;4270172;33;34446;-73
2022/11/22 00:22:51;;;;;;;34.60;18.15;;;;;;;4.21;80.22;98934.19;4304508;33;35294;-75
2022/11/22 00:25:18;;;;;;;35.67;17.92;;;;;;;3.98;81.78;98937.59;4291922;33;34964;-74
2022/11/22 00:27:46;;;;;;;35.92;17.98;;;;;;;4.35;81.00;98926.78;4303627;33;34311;-73
2022/11/22 00:30:13;;;;;;;34.35;16.77;;;;;;;3.47;83.79;98924.31;4291352;33;33923;-75
2022/11/22 00:32:41;;;;;;;31.92;17.98;;;;;;;3.47;84.75;98929.69;4291444;33;35055;-74
2022/11/22 00:35:10;;;;;;;37.38;18.48;;;;;;;3.83;82.62;98925.38;4303385;33;34706;-76
2022/11/22 00:37:37;;;;;;;38.22;18.48;;;;;;;3.77;82.30;98917.41;4304682;33;33635;-73
2022/11/22 00:40:05;;;;;;;41.92;18.55;;;;;;;3.29;84.13;98910.91;4291164;33;33886;-73
2022/11/22 00:42:33;;;;;;;34.10;18.90;;;;;;;3.24;84.25;98905.38;4304003;33;35031;-73
2022/11/22 00:45:00;;;;;;;31.65;19.02;;;;;;;3.61;82.96;98903.56;4304303;33;34214;-73
2022/11/22 00:47:28;;;;;;;33.42;19.23;;;;;;;3.60;82.74;98909.94;4304316;33;33567;-75
2022/11/22 00:49:55;;;;;;;37.67;19.87;;;;;;;2.89;86.76;98908.59;4291064;33;32648;-74
2022/11/22 00:52:22;;;;;;;33.67;18.90;;;;;;;3.15;85.98;98912.91;4290304;33;33432;-75
2022/11/22 00:54:50;;;;;;;30.42;17.50;;;;;;;3.63;84.40;98917.56;4304028;33;34877;-74
2022/11/22 00:57:21;;;;;;;40.97;19.23;;;;;;;3.08;86.39;98920.19;4303493;33;33729;-73
2022/11/22 00:59:49;;;;;;;33.75;19.35;;;;;;;2.73;88.17;98920.69;4279133;33;32277;-73
2022/11/22 01:02:16;;;;;;;38.10;18.25;;;;;;;3.07;87.55;98914.03;4291109;33;35121;-73
2022/11/22 01:04:44;;;;;;;31.10;16.98;;;;;;;2.97;88.05;98919.06;4303533;33;34928;-73
2022/11/22 01:07:11;;;;;;;34.38;17.92;;;;;;;3.03;87.90;98923.53;4297447;33;33777;-79
2022/11/22 01:09:39;;;;;;;31.25;17.42;;;;;;;2.84;88.50;98916.50;4276785;33;33942;-74
2022/11/22 01:12:06;;;;;;;35.67;16.67;;;;;;;2.83;90.08;98920.19;4289930;33;34180;-73
2022/11/22 01:14:34;;;;;;;45.38;16.75;;;;;;;2.64;90.41;98917.47;4289876;33;34746;-75
2022/11/22 01:17:02;;;;;;;32.30;16.77;;;;;;;2.80;89.14;98916.09;4277390;33;33858;-73
2022/11/22 01:19:29;;;;;;;43.78;17.55;;;;;;;3.13;88.21;98909.63;4279197;33;32466;-71
2022/11/22 01:21:57;;;;;;;27.73;16.00;;;;;;;3.02;88.44;98902.31;4304221;33;34024;-72
2022/11/22 01:24:25;;;;;;;32.30;16.45;;;;;;;3.44;87.07;98900.66;4293697;33;34075;-73
2022/11/22 01:26:52;;;;;;;34.20;16.02;;;;;;;3.20;87.05;98898.84;4289751;33;34499;-74
2022/11/22 01:29:19;;;;;;;44.83;16.37;;;;;;;2.74;90.49;98900.09;4276824;33;32858;-73
2022/11/22 01:31:47;;;;;;;1.87;1.27;;;;;;;2.76;90.29;98890.78;4295394;33;34869;-73
2022/11/22 01:34:14;;;;;;;34.60;16.80;;;;;;;2.87;90.41;98891.94;4303609;33;34739;-72
2022/11/22 01:36:41;;;;;;;36.67;17.40;;;;;;;2.75;91.21;98893.69;4303601;33;33835;-73
2022/11/22 01:39:09;;;;;;;32.58;15.00;;;;;;;2.77;90.43;98899.66;4303883;33;33727;-72
2022/11/22 01:41:37;;;;;;;43.15;16.23;;;;;;;2.64;90.98;98896.03;4289757;33;34976;-72
2022/11/22 01:44:24;;;;;;;30.90;15.82;;;;;;;2.62;90.50;98902.66;4304135;33;34869;-73
2022/11/22 01:47:12;;;;;;;28.15;15.88;;;;;;;2.74;89.99;98902.75;4280853;33;33858;-72
2022/11/22 01:49:55;;;;;;;27.98;15.32;;;;;;;2.70;90.89;98901.56;4276420;33;33689;-71
2022/11/22 01:52:25;;;;;;;30.15;14.77;;;;;;;2.58;92.21;98898.78;4289962;33;35119;-76
2022/11/22 01:54:57;;;;;;;28.35;14.70;;;;;;;2.75;91.05;98893.69;4276319;33;34173;-73
2022/11/22 01:57:30;;;;;;;34.97;15.13;;;;;;;2.88;89.89;98898.94;4276481;33;34471;-76
2022/11/22 02:00:01;;;;;;;30.98;15.32;;;;;;;3.08;89.12;98891.53;4290050;33;34834;-72
2022/11/22 02:02:33;;;;;;;33.70;16.87;;;;;;;2.96;89.98;98893.31;4276803;33;35011;-73
2022/11/22 02:05:04;;;;;;;31.08;16.30;;;;;;;2.75;91.09;98888.34;4276290;33;34111;-75
2022/11/22 02:07:36;;;;;;;33.25;17.37;;;;;;;2.86;91.87;98880.41;4281280;33;34545;-74
2022/11/22 02:10:04;;;;;;;35.63;18.02;;;;;;;2.23;94.25;98892.00;4281483;33;34757;-72
2022/11/22 02:12:33;;;;;;;32.38;16.73;;;;;;;3.04;90.94;98893.00;4289673;33;33916;-75
2022/11/22 02:15:00;;;;;;;38.67;17.02;;;;;;;2.61;92.56;98883.09;4289126;33;33981;-74
2022/11/22 02:17:28;;;;;;;39.78;17.23;;;;;;;3.16;90.26;98885.06;4289414;33;34558;-73
2022/11/22 02:19:55;;;;;;;41.42;17.55;;;;;;;3.39;88.67;98875.53;4276191;33;33801;-76
2022/11/22 02:22:38;;;;;;;41.75;19.05;;;;;;;3.04;89.62;98873.44;4275644;33;34244;-73
2022/11/22 02:25:19;;;;;;;41.45;19.25;;;;;;;3.04;91.05;98871.56;4290182;33;34965;-73
2022/11/22 02:27:48;;;;;;;39.10;17.92;;;;;;;2.87;92.48;98868.66;4278564;33;33290;-72
2022/11/22 02:30:17;;;;;;;42.20;18.52;;;;;;;2.82;93.06;98870.34;4289582;33;34156;-76
2022/11/22 02:32:44;;;;;;;48.15;18.52;;;;;;;3.30;91.11;98869.66;4303412;33;34192;-74
2022/11/22 02:35:18;;;;;;;40.50;18.58;;;;;;;3.17;90.77;98873.28;4303645;33;34994;-74
2022/11/22 02:37:55;;;;;;;40.15;17.48;;;;;;;3.15;90.46;98864.66;4290289;33;33684;-74
2022/11/22 02:40:23;;;;;;;30.70;12.15;;;;;;;3.17;92.33;98867.94;4289158;33;33107;-75
2022/11/22 02:43:16;;;;;;;52.78;17.80;;;;;;;3.35;92.13;98867.13;4303661;33;34110;-72
2022/11/22 02:45:43;;;;;;;43.00;16.98;;;;;;;3.67;90.38;98867.78;4281034;33;34055;-76
2022/11/22 02:48:13;;;;;;;39.08;17.48;;;;;;;3.40;90.86;98867.28;4277657;33;34522;-73
2022/11/22 02:50:41;;;;;;;47.50;17.87;;;;;;;3.35;91.75;98871.66;4277558;33;33962;-72
2022/11/22 02:53:09;;;;;;;46.58;17.55;;;;;;;3.67;89.79;98867.78;4274951;33;88629;-76
2022/11/22 02:55:37;;;;;;;46.10;18.80;;;;;;;3.29;91.95;98870.72;4290550;33;34959;-74
2022/11/22 02:58:04;;;;;;;45.58;18.60;;;;;;;3.22;92.87;98867.28;4287125;33;33765;-73
2022/11/22 03:00:33;;;;;;;42.70;18.85;;;;;;;3.43;91.98;98861.47;4304936;33;34164;-73
2022/11/22 03:03:01;;;;;;;38.30;18.12;;;;;;;3.62;91.13;98864.94;4305132;33;34269;-73
2022/11/22 03:05:29;;;;;;;44.67;19.60;;;;;;;3.78;90.74;98862.69;4303954;33;34494;-73
2022/11/22 03:07:56;;;;;;;46.53;19.85;;;;;;;3.42;90.59;98850.97;4305346;33;33804;-72
2022/11/22 03:10:24;;;;;;;43.42;20.70;;;;;;;3.52;91.83;98861.16;4305138;33;34806;-73
2022/11/22 03:12:51;;;;;;;55.05;19.25;;;;;;;3.60;90.62;98856.31;4290015;33;33689;-73
2022/11/22 03:15:18;;;;;;;43.75;19.23;;;;;;;3.83;90.30;98858.28;4290476;33;34271;-74
2022/11/22 03:17:46;;;;;;;44.08;19.77;;;;;;;3.72;90.18;98853.69;4289890;33;33648;-76
2022/11/22 03:20:13;;;;;;;45.92;20.20;;;;;;;3.88;89.24;98854.94;4304635;33;32988;-73
2022/11/22 03:22:41;;;;;;;14.55;6.57;;;;;;;3.55;91.30;98852.69;4305049;33;34081;-74
2022/11/22 03:25:08;;;;;;;46.13;20.25;;;;;;;4.08;89.60;98854.62;4303929;33;34878;-75
2022/11/22 03:27:36;;;;;;;43.03;19.77;;;;;;;4.16;88.03;98848.16;4304557;33;33683;-73
2022/11/22 03:30:03;;;;;;;46.10;19.67;;;;;;;4.12;87.61;98858.50;4302401;33;34395;-73
2022/11/22 03:32:31;;;;;;;45.15;20.67;;;;;;;3.29;92.64;98860.78;4290406;33;34187;-73
2022/11/22 03:34:58;;;;;;;51.22;20.58;;;;;;;3.84;90.32;98865.28;4290326;33;34216;-77
2022/11/22 03:37:26;;;;;;;50.75;20.75;;;;;;;3.90;88.74;98872.44;4290482;33;33851;-72
2022/11/22 03:39:53;;;;;;;49.70;22.17;;;;;;;3.20;92.62;98858.66;4289280;33;33928;-76
2022/11/22 03:42:20;;;;;;;52.42;22.50;;;;;;;3.62;92.13;98859.59;4290113;33;34331;-73
2022/11/22 03:44:48;;;;;;;47.22;21.12;;;;;;;3.85;90.16;98848.16;4277429;33;35031;-73
2022/11/22 03:47:16;;;;;;;47.65;21.30;;;;;;;3.86;90.35;98841.72;4294101;33;33785;-74
2022/11/22 03:49:43;;;;;;;50.30;21.67;;;;;;;3.79;90.40;98845.56;4304807;33;33979;-73
2022/11/22 03:52:10;;;;;;;55.60;22.60;;;;;;;3.67;91.06;98840.13;4290947;33;34068;-73
2022/11/22 03:54:38;;;;;;;51.00;22.27;;;;;;;3.35;93.20;98842.16;4291668;33;34972;-74
2022/11/22 03:57:05;;;;;;;44.30;22.27;;;;;;;3.69;91.46;98843.41;4303784;33;34297;-72
2022/11/22 03:59:33;;;;;;;49.55;23.25;;;;;;;3.60;91.61;98840.22;4304793;33;33915;-72
2022/11/22 04:02:01;;;;;;;45.38;21.50;;;;;;;3.88;90.37;98839.62;4304556;33;34308;-73
2022/11/22 04:04:28;;;;;;;45.50;20.98;;;;;;;3.99;89.83;98839.91;4293814;33;34290;-76
2022/11/22 04:06:56;;;;;;;42.08;19.37;;;;;;;3.63;90.91;98841.66;4295428;33;33774;-73
2022/11/22 04:09:23;;;;;;;38.78;20.37;;;;;;;4.15;89.61;98833.91;4304550;33;33955;-73
2022/11/22 04:11:51;;;;;;;38.67;19.80;;;;;;;3.88;88.28;98839.62;4304417;33;34264;-72
2022/11/22 04:17:04;;;;;;;40.97;22.17;;;;;;;4.06;87.13;98840.63;4290118;33;33640;-74
2022/11/22 04:19:31;;;;;;;42.53;20.90;;;;;;;3.56;89.23;98833.66;4277299;33;33901;-73
2022/11/22 04:21:59;;;;;;;40.03;20.80;;;;;;;3.78;87.93;98839.38;4276870;33;34393;-76
2022/11/22 04:27:12;;;;;;;42.62;21.08;;;;;;;3.36;88.96;98833.91;4289878;33;34571;-73
2022/11/22 04:29:40;;;;;;;45.00;21.52;;;;;;;3.12;90.61;98835.63;4290072;33;33940;-73
2022/11/22 04:34:54;;;;;;;42.17;21.83;;;;;;;3.42;87.44;98850.97;4295323;33;34218;-75
2022/11/22 04:37:21;;;;;;;46.30;23.00;;;;;;;2.61;93.60;98836.75;4304105;33;33653;-72
2022/11/22 04:39:48;;;;;;;47.13;21.85;;;;;;;3.04;90.48;98834.03;4291503;33;34025;-76
2022/11/22 04:45:02;;;;;;;46.78;23.75;;;;;;;3.14;88.57;98830.06;4303445;33;35043;-74
2022/11/22 04:53:03;;;;;;;36.90;20.30;;;;;;;3.67;86.95;98827.56;4290017;33;34433;-73
2022/11/22 04:55:30;;;;;;;38.78;20.73;;;;;;;3.34;87.11;98821.78;4290292;33;34392;-74
2022/11/22 04:57:57;;;;;;;41.42;21.37;;;;;;;3.04;89.03;98831.38;4289202;33;33755;-72
2022/11/22 05:00:28;;;;;;;40.85;21.10;;;;;;;3.05;88.20;98830.34;4303993;33;34782;-73
2022/11/22 05:02:56;;;;;;;35.50;19.60;;;;;;;2.71;90.31;98841.63;4304403;33;34989;-72
2022/11/22 05:05:24;;;;;;;42.55;21.10;;;;;;;2.58;91.45;98851.38;4301939;33;34247;-74
2022/11/22 05:07:51;;;;;;;39.25;21.12;;;;;;;2.99;89.45;98844.63;4289548;33;34705;-73
2022/11/22 05:10:19;;;;;;;42.70;22.45;;;;;;;3.24;87.25;98846.41;4276250;33;33228;-75
2022/11/22 05:12:54;;;;;;;48.28;22.40;;;;;;;2.73;89.80;98845.69;4277417;33;34176;-74
2022/11/22 05:15:21;;;;;;;44.45;23.17;;;;;;;2.03;95.48;98819.06;4276919;33;33949;-75
2022/11/22 05:17:48;;;;;;;46.13;23.23;;;;;;;2.32;93.61;98839.03;4290127;33;33844;-76
2022/11/22 05:20:16;;;;;;;43.20;21.62;;;;;;;2.03;94.82;98835.09;4289517;33;34814;-73
2022/11/22 05:25:30;;;;;;;39.45;21.50;;;;;;;2.76;89.94;98842.56;4304346;33;33546;-74
2022/11/22 05:27:57;;;;;;;42.80;22.60;;;;;;;2.63;90.84;98848.88;4303435;33;34576;-76
2022/11/22 05:30:25;;;;;;;38.40;21.62;;;;;;;2.70;88.74;98837.28;4304319;33;34019;-74
2022/11/22 05:32:53;;;;;;;42.58;23.42;;;;;;;2.70;88.82;98859.53;4303817;33;33982;-73
2022/11/22 05:35:21;;;;;;;41.78;23.58;;;;;;;2.34;89.48;98849.53;4291206;33;35071;-75
2022/11/22 05:37:48;;;;;;;39.92;22.65;;;;;;;2.47;89.02;98852.91;4304158;33;33599;-74
2022/11/22 05:40:16;;;;;;;49.80;25.15;;;;;;;2.50;89.59;98853.53;4304326;33;34770;-74
2022/11/22 05:42:43;;;;;;;45.80;25.33;;;;;;;2.52;88.46;98822.81;4291842;33;33994;-72
2022/11/22 05:45:10;;;;;;;49.35;25.25;;;;;;;2.41;88.81;98823.53;4303872;33;34206;-74
2022/11/22 05:47:38;;;;;;;47.22;25.15;;;;;;;2.12;90.51;98825.81;4303829;33;33799;-74
2022/11/22 05:50:05;;;;;;;42.72;24.95;;;;;;;2.49;88.74;98841.19;4303643;33;33888;-72
2022/11/22 05:52:33;;;;;;;48.22;25.50;;;;;;;1.93;89.95;98843.63;4304081;33;34128;-71
2022/11/22 05:55:01;;;;;;;46.53;26.02;;;;;;;2.35;88.69;98860.00;4300206;33;34256;-70
2022/11/22 05:57:28;;;;;;;45.08;25.62;;;;;;;2.30;88.71;98862.53;4299791;33;33625;-71
2022/11/22 05:59:55;;;;;;;47.42;26.67;;;;;;;2.30;88.69;98864.38;4288216;33;33884;-71
2022/11/22 06:02:24;;;;;;;47.65;27.00;;;;;;;2.54;87.50;98863.56;4291981;33;34004;-71
2022/11/22 06:04:51;;;;;;;47.17;27.58;;;;;;;2.14;89.19;98860.34;4274710;33;33366;-70
2022/11/22 06:07:18;;;;;;;42.33;24.00;;;;;;;2.52;87.29;98862.16;4297877;33;34652;-70
2022/11/22 06:09:46;;;;;;;41.95;24.37;;;;;;;2.55;86.48;98865.22;4288002;33;33845;-72
2022/11/22 06:12:14;;;;;;;39.03;22.33;;;;;;;2.83;85.30;98864.78;4288091;33;34079;-72
2022/11/22 06:14:41;;;;;;;37.45;22.98;;;;;;;1.98;89.24;98875.06;4274444;33;34152;-72
2022/11/22 06:17:09;;;;;;;40.78;22.85;;;;;;;2.12;88.71;98873.16;4293052;33;33569;-72
2022/11/22 06:19:37;;;;;;;34.17;20.35;;;;;;;2.24;86.97;98879.44;4301745;33;34418;-72
2022/11/22 06:22:05;;;;;;;37.25;21.55;;;;;;;2.46;86.27;98871.88;4301637;33;33922;-72
2022/11/22 06:24:32;;;;;;;37.60;20.55;;;;;;;2.09;87.48;98873.56;4302416;33;33755;-71
2022/11/22 06:27:00;;;;;;;36.63;21.42;;;;;;;1.73;89.08;98867.81;4302364;33;33854;-72
2022/11/22 06:29:28;;;;;;;41.08;24.58;;;;;;;1.58;89.68;98868.06;4297495;33;33563;-73
2022/11/22 06:31:56;;;;;;;42.40;24.23;;;;;;;1.96;88.95;98859.22;4284499;33;33930;-71
2022/11/22 06:34:30;;;;;;;2.30;1.30;;;;;;;1.93;89.42;98858.84;4301741;33;34054;-73
2022/11/22 06:36:57;;;;;;;38.03;21.60;;;;;;;1.82;90.25;98861.16;4299305;33;33627;-75
2022/11/22 06:39:24;;;;;;;38.88;21.52;;;;;;;2.08;88.56;98861.25;4288547;33;33958;-71
2022/11/22 06:41:52;;;;;;;35.80;20.85;;;;;;;1.93;89.67;98866.88;4294097;33;33723;-71
2022/11/22 06:44:19;;;;;;;35.47;20.90;;;;;;;1.71;91.07;98872.53;4301626;33;34329;-72
2022/11/22 06:46:47;;;;;;;39.67;21.90;;;;;;;2.21;89.03;98864.66;4287867;33;33825;-74
2022/11/22 06:49:14;;;;;;;37.08;21.62;;;;;;;2.35;88.42;98868.03;4301276;33;33762;-75
2022/11/22 06:51:42;;;;;;;35.00;21.15;;;;;;;2.05;89.66;98868.66;4299548;33;34068;-73
2022/11/22 06:54:10;;;;;;;39.38;20.90;;;;;;;2.32;89.24;98878.38;4301748;33;34265;-73
2022/11/22 06:56:39;;;;;;;38.53;22.67;;;;;;;2.46;88.50;98870.03;4288446;33;33501;-74
2022/11/22 06:59:07;;;;;;;2.30;1.87;;;;;;;2.32;89.75;98865.00;4286845;33;33975;-72
2022/11/22 07:01:36;;;;;;;36.58;21.23;;;;;;;2.49;88.99;98852.72;4288399;33;34955;-71
2022/11/22 07:04:04;;;;;;;34.30;20.58;;;;;;;2.94;87.64;98860.56;4291386;33;33879;-73
2022/11/22 07:06:33;;;;;;;36.13;22.02;;;;;;;2.88;87.53;98866.78;4292926;33;33438;-71
2022/11/22 07:09:02;;;;;;;20.75;9.57;;;;;;;2.69;87.05;98865.13;4289645;33;33961;-72
2022/11/22 07:11:30;;;;;;;35.50;21.33;;;;;;;2.57;88.07;98871.19;4302511;33;34999;-76
2022/11/22 07:13:59;;;;;;;35.05;19.73;;;;;;;2.54;88.58;98866.25;4288397;33;34968;-72
2022/11/22 07:16:36;;;;;;;31.48;19.65;;;;;;;2.72;87.44;98859.31;4290156;33;34461;-70
2022/11/22 07:19:04;;;;;;;33.65;18.50;;;;;;;2.56;87.92;98860.69;4288985;33;34015;-73
2022/11/22 07:21:32;;;;;;;33.20;19.12;;;;;;;2.21;90.58;98851.25;4274269;33;36594;-73
2022/11/22 07:23:59;;;;;;;31.75;19.65;;;;;;;2.38;90.14;98856.09;4288103;33;34177;-74
2022/11/22 07:26:27;;;;;;;10.40;7.90;;;;;;;2.49;89.29;98860.75;4275024;33;34004;-75
2022/11/22 07:28:54;;;;;;;28.70;18.55;;;;;;;2.47;88.39;98862.81;4289245;33;34861;-73
2022/11/22 07:31:22;;;;;;;30.50;18.83;;;;;;;2.41;88.45;98866.34;4288287;33;33816;-73
2022/11/22 07:33:49;;;;;;;30.77;19.30;;;;;;;2.46;87.91;98866.50;4291306;33;33950;-75
2022/11/22 07:36:19;;;;;;;30.67;18.00;;;;;;;2.58;88.20;98869.31;4291263;33;34533;-73
2022/11/22 07:38:47;;;;;;;30.58;17.90;;;;;;;2.09;89.74;98873.56;4290750;33;33808;-74
2022/11/22 07:41:16;;;;;;;32.50;18.58;;;;;;;2.75;87.83;98880.31;4304280;33;35123;-74
2022/11/22 07:43:44;;;;;;;28.83;17.08;;;;;;;2.56;88.98;98864.19;4289711;33;35109;-74
2022/11/22 07:46:30;;;;;;;31.20;17.85;;;;;;;2.55;89.84;98865.22;4291540;33;33833;-74
2022/11/22 07:48:58;;;;;;;8.13;5.32;;;;;;;2.41;90.45;98864.50;4304612;33;34834;-74
2022/11/22 07:51:26;;;;;;;30.45;17.45;;;;;;;2.45;90.06;98868.38;4304179;33;35013;-73
2022/11/22 07:53:54;;;;;;;36.63;17.65;;;;;;;2.41;90.09;98866.34;4301666;33;34307;-74
2022/11/22 07:56:22;;;;;;;31.80;17.40;;;;;;;2.16;92.47;98858.28;4289822;33;33446;-74
2022/11/22 07:58:49;;;;;;;31.65;17.42;;;;;;;2.76;89.28;98849.78;4293884;33;33637;-72
2022/11/22 08:01:18;;;;;;;18.85;10.68;;;;;;;3.00;87.98;98864.19;4304183;33;34040;-72
2022/11/22 08:03:46;;;;;;;37.42;22.08;;;;;;;2.89;88.13;98863.06;4304165;33;35087;-73
2022/11/22 08:06:14;;;;;;;32.00;18.00;;;;;;;2.96;87.36;98868.34;4303077;33;33649;-73
2022/11/22 08:08:41;;;;;;;30.02;18.65;;;;;;;2.62;88.97;98859.81;4288137;33;34647;-73
2022/11/22 08:11:10;;;;;;;30.67;17.60;;;;;;;2.59;89.61;98862.91;4301059;33;35098;-75
2022/11/22 08:13:38;;;;;;;32.97;17.80;;;;;;;3.07;87.42;98849.69;4283464;33;34029;-72
2022/11/22 08:16:07;;;;;;;29.30;18.27;;;;;;;2.78;88.62;98858.44;4287491;33;32585;-72
2022/11/22 08:18:36;;;;;;;28.90;17.77;;;;;;;2.91;87.93;98846.78;4289025;33;33990;-71
2022/11/22 08:21:06;;;;;;;32.80;20.62;;;;;;;2.70;89.51;98839.97;4298378;33;33923;-71
2022/11/22 08:23:34;;;;;;;31.92;18.95;;;;;;;2.98;88.68;98860.91;4287855;33;34847;-73
2022/11/22 08:26:03;;;;;;;33.67;19.55;;;;;;;2.94;88.77;98847.16;4300191;33;33874;-73
2022/11/22 08:28:30;;;;;;;30.58;17.73;;;;;;;3.01;88.83;98841.72;4300053;33;34698;-73
2022/11/22 08:31:07;;;;;;;25.10;15.10;;;;;;;3.06;88.23;98857.94;4298730;33;34958;-72
2022/11/22 08:33:35;;;;;;;34.47;18.77;;;;;;;2.56;90.90;98845.44;4288736;33;34388;-72
2022/11/22 08:36:03;;;;;;;35.05;19.25;;;;;;;2.73;89.46;98853.75;4299067;33;33584;-73
2022/11/22 08:38:31;;;;;;;32.92;19.45;;;;;;;2.45;92.21;98856.84;4301078;33;34787;-73
2022/11/22 08:40:58;;;;;;;34.20;19.85;;;;;;;2.81;90.10;98864.19;4301780;33;33906;-73
2022/11/22 08:43:26;;;;;;;35.00;20.35;;;;;;;3.01;89.05;98857.81;4287266;33;33603;-73
2022/11/22 08:45:56;;;;;;;34.40;20.55;;;;;;;2.88;90.77;98851.53;4288385;33;33645;-73
2022/11/22 08:48:24;;;;;;;33.58;19.10;;;;;;;3.02;90.05;98848.72;4286989;33;34839;-74
2022/11/22 08:50:53;;;;;;;30.73;17.92;;;;;;;2.55;91.96;98848.31;4288285;33;33631;-72
2022/11/22 08:53:21;;;;;;;31.92;19.30;;;;;;;2.63;91.61;98859.56;4301926;33;33772;-71
2022/11/22 08:55:49;;;;;;;33.88;19.12;;;;;;;2.92;90.56;98851.91;4285242;33;34677;-78
2022/11/22 08:58:16;;;;;;;32.65;19.15;;;;;;;2.98;89.70;98853.72;4298975;33;33728;-76
2022/11/22 09:00:44;;;;;;;32.60;17.60;;;;;;;2.97;90.47;98857.44;4302489;33;34112;-77
2022/11/22 09:03:11;;;;;;;30.27;17.98;;;;;;;3.02;89.85;98851.41;4302613;33;33988;-76
2022/11/22 09:05:39;;;;;;;34.00;18.02;;;;;;;3.10;90.07;98839.59;4288503;33;33995;-76
2022/11/22 09:08:27;;;;;;;34.90;19.40;;;;;;;3.08;89.63;98856.69;4302386;33;33741;-76
2022/11/22 09:11:05;;;;;;;30.88;17.48;;;;;;;3.10;89.76;98850.31;4300485;33;33844;-78
2022/11/22 09:13:33;;;;;;;32.55;17.58;;;;;;;3.23;90.15;98848.28;4289217;33;34092;-76
2022/11/22 09:16:06;;;;;;;32.00;18.10;;;;;;;3.24;89.33;98847.25;4287002;33;33704;-75
2022/11/22 09:18:33;;;;;;;33.50;18.40;;;;;;;3.19;90.12;98840.91;4288056;33;34525;-75
2022/11/22 09:21:03;;;;;;;30.92;17.15;;;;;;;3.14;90.11;98827.37;4289325;33;34143;-77
2022/11/22 09:23:30;;;;;;;35.25;18.15;;;;;;;3.35;89.62;98847.53;4287220;33;33790;-78
2022/11/22 09:26:09;;;;;;;30.05;18.20;;;;;;;3.47;89.07;98830.47;4302071;33;33365;-78
2022/11/22 09:28:37;;;;;;;33.42;19.30;;;;;;;3.57;88.85;98834.50;4302410;33;33929;-76
2022/11/22 09:31:14;;;;;;;33.08;18.37;;;;;;;3.63;88.64;98830.91;4299654;33;33955;-78
2022/11/22 09:33:43;;;;;;;28.62;16.30;;;;;;;3.83;86.83;98815.38;4302185;33;33053;-71
2022/11/22 09:36:14;;;;;;;30.00;17.17;;;;;;;4.07;86.82;98818.13;4302341;33;33586;-72
2022/11/22 09:38:41;;;;;;;32.72;17.75;;;;;;;4.25;85.50;98826.09;4299768;33;32633;-70
2022/11/22 09:41:15;;;;;;;32.97;17.77;;;;;;;4.08;86.19;98817.06;4301524;33;34257;-73
2022/11/22 09:44:20;;;;;;;29.12;16.62;;;;;;;4.26;86.21;98816.19;4299600;33;34341;-74
2022/11/22 09:47:04;;;;;;;28.38;15.90;;;;;;;3.86;87.28;98812.22;4301103;33;33892;-75
2022/11/22 09:50:07;;;;;;;31.35;17.12;;;;;;;4.09;86.54;98806.09;4288076;33;33919;-73
2022/11/22 09:52:57;;;;;;;36.90;21.15;;;;;;;4.01;87.20;98802.94;4290634;33;34159;-73
2022/11/22 09:55:30;;;;;;;37.60;19.45;;;;;;;4.36;86.74;98804.87;4278754;33;34251;-74
2022/11/22 09:58:22;;;;;;;29.23;17.08;;;;;;;4.34;86.05;98797.03;4287996;33;33182;-74
2022/11/22 10:00:51;;;;;;;34.55;18.65;;;;;;;4.18;86.15;98784.31;4283715;33;34296;-80
2022/11/22 10:03:49;;;;;;;33.67;19.12;;;;;;;4.19;87.01;98789.44;4289365;33;33668;-76
2022/11/22 10:06:33;;;;;;;34.97;18.62;;;;;;;4.30;87.58;98785.16;4300346;33;34936;-75
2022/11/22 10:09:04;;;;;;;32.05;18.58;;;;;;;4.50;86.40;98776.75;4287179;33;33373;-77
2022/11/22 10:11:52;;;;;;;33.13;17.90;;;;;;;4.70;85.09;98782.56;4298461;33;33554;-76
2022/11/22 10:14:44;;;;;;;35.35;18.25;;;;;;;5.01;84.17;98771.69;4300663;33;33537;-74
2022/11/22 10:17:34;;;;;;;31.20;17.37;;;;;;;5.29;82.32;98763.69;4300921;33;34046;-75
2022/11/22 10:20:34;;;;;;;33.13;17.70;;;;;;;4.71;84.41;98770.78;4301501;33;33604;-75
2022/11/22 10:23:06;;;;;;;28.50;16.05;;;;;;;4.83;83.77;98764.59;4274064;33;32474;-75
2022/11/22 10:25:44;;;;;;;34.50;19.00;;;;;;;4.62;84.85;98766.00;4286245;33;35252;-72
2022/11/22 10:28:34;;;;;;;30.70;17.83;;;;;;;4.76;84.49;98761.22;4287480;33;34163;-75
2022/11/22 10:31:09;;;;;;;29.80;17.20;;;;;;;5.01;83.62;98764.44;4301053;33;34659;-71
2022/11/22 10:33:46;;;;;;;33.10;17.35;;;;;;;4.80;84.16;98757.81;4288793;33;33812;-70
2022/11/22 10:36:34;;;;;;;30.80;17.05;;;;;;;4.77;84.41;98750.19;4285759;33;34301;-70
2022/11/22 10:39:29;;;;;;;32.70;18.15;;;;;;;4.86;84.45;98742.59;4299803;33;33713;-74
2022/11/22 10:42:18;;;;;;;37.55;18.85;;;;;;;4.60;85.29;98731.31;4288650;33;33531;-71
2022/11/22 10:45:01;;;;;;;32.90;18.98;;;;;;;4.88;83.26;98735.13;4272688;33;34056;-75
2022/11/22 10:47:44;;;;;;;34.03;17.80;;;;;;;4.78;84.52;98726.84;4299711;33;33696;-74
2022/11/22 10:50:36;;;;;;;31.50;17.37;;;;;;;4.72;84.65;98728.59;4299912;33;33923;-79
2022/11/22 10:53:14;;;;;;;31.92;17.55;;;;;;;4.83;84.37;98721.59;4299853;33;33448;-75
2022/11/22 10:56:08;;;;;;;34.50;18.83;;;;;;;4.96;84.51;98718.63;4288051;33;34697;-75
2022/11/22 10:59:05;;;;;;;34.78;18.87;;;;;;;4.87;84.27;98707.44;4291594;33;33960;-75
2022/11/22 11:01:55;;;;;;;31.37;18.05;;;;;;;4.98;84.95;98700.41;4296668;33;34552;-74
2022/11/22 11:04:30;;;;;;;33.60;18.98;;;;;;;5.20;83.27;98680.91;4283202;33;34481;-78
2022/11/22 11:06:59;;;;;;;28.45;16.73;;;;;;;5.15;83.57;98689.72;4284249;33;33061;-74
2022/11/22 11:09:45;;;;;;;29.45;16.73;;;;;;;5.02;84.27;98685.44;4276731;33;34157;-79
2022/11/22 11:12:45;;;;;;;29.50;17.80;;;;;;;5.52;81.23;98678.56;4277595;33;33967;-73
2022/11/22 11:15:33;;;;;;;28.95;17.08;;;;;;;5.75;81.12;98683.00;4275586;33;33608;-75
2022/11/22 11:18:02;;;;;;;27.50;16.12;;;;;;;5.70;81.20;98659.50;4279491;33;34280;-76
2022/11/22 11:20:37;;;;;;;27.50;16.35;;;;;;;5.77;81.01;98675.50;4289691;33;34091;-75
2022/11/22 11:23:05;;;;;;;28.52;17.55;;;;;;;5.33;82.46;98665.31;4302031;33;33926;-73
2022/11/22 11:25:44;;;;;;;30.98;17.83;;;;;;;5.78;80.29;98679.81;4295561;33;33705;-73
2022/11/22 11:28:27;;;;;;;31.25;18.27;;;;;;;5.76;80.77;98681.91;4288656;33;33608;-74
2022/11/22 11:31:01;;;;;;;32.35;18.20;;;;;;;5.75;81.30;98664.16;4276906;33;34951;-74
2022/11/22 11:33:30;;;;;;;30.12;17.52;;;;;;;5.74;81.26;98662.50;4288043;33;34095;-73
2022/11/22 11:36:17;;;;;;;30.05;18.52;;;;;;;5.67;81.49;98643.03;4263475;33;33854;-74
2022/11/22 11:38:45;;;;;;;28.25;17.75;;;;;;;5.47;81.62;98656.94;4275113;33;33897;-74
2022/11/22 11:41:28;;;;;;;31.83;17.90;;;;;;;5.78;81.68;98652.87;4287783;33;35017;-73
2022/11/22 11:44:03;;;;;;;28.92;17.77;;;;;;;6.07;79.68;98642.88;4287955;33;34901;-73
2022/11/22 11:46:40;;;;;;;31.92;17.75;;;;;;;5.60;81.82;98637.81;4288535;33;33195;-76
2022/11/22 11:49:12;;;;;;;30.75;18.58;;;;;;;6.11;80.11;98640.50;4302510;33;34768;-74
2022/11/22 11:51:41;;;;;;;30.25;17.23;;;;;;;5.74;81.36;98632.91;4289449;33;33950;-79
2022/11/22 11:54:13;;;;;;;26.50;16.40;;;;;;;5.81;81.25;98622.81;4302750;33;35309;-74
2022/11/22 11:56:48;;;;;;;29.75;16.17;;;;;;;6.15;79.62;98622.78;4289199;33;33862;-73
2022/11/22 11:59:20;;;;;;;31.23;17.80;;;;;;;5.87;80.71;98607.53;4299346;33;33636;-74
2022/11/22 12:01:52;;;;;;;27.48;17.35;;;;;;;6.04;80.59;98613.75;4302351;33;34748;-77
2022/11/22 12:04:25;;;;;;;32.47;18.87;;;;;;;6.23;79.45;98603.50;4289383;33;33902;-73